Shep, Texas
Current Conditions -  °F | °C
As of 3:08 PM on Wednesday 17 Dec 2014 (Local Time) from KDYS Reporting Station
Overcast Overcast  
Wind Chill: 50°   Ceiling: 2100
Heat Index: 50°   Visibility: 10mi
Dew Point: 39°   Wind: 14mph
Humidity: 66%   Direction: 170°S
Pressure: 29.99"   Gusts: NA
Location:  32.0181°N, 100.153°W
Report Text: KDYS 172108Z AUTO 17012KT 10SM OVC021 10/04 A2999 RMK AO2
Loading
Personal Weather Stations






























Interactive Weather Map New forecast layout! Learn more

10-Day Weather Forecast

Advertisements
Track Severe Weather on mobile